createdAt,value
2023-08-27T00:00:19.533Z,52.38
2023-08-27T00:01:19.539Z,54.40
2023-08-27T00:02:19.507Z,56.08
2023-08-27T00:03:19.702Z,51.64
2023-08-27T00:04:19.542Z,53.35
2023-08-27T00:05:19.482Z,52.75
2023-08-27T00:06:19.464Z,55.56
2023-08-27T00:07:19.451Z,51.37
2023-08-27T00:08:19.454Z,52.39
2023-08-27T00:09:20.420Z,52.72
2023-08-27T00:10:19.424Z,54.42
2023-08-27T00:11:19.484Z,50.31
2023-08-27T00:12:19.408Z,49.23
2023-08-27T00:13:19.448Z,50.87
2023-08-27T00:14:19.389Z,52.34
2023-08-27T00:15:19.387Z,51.09
2023-08-27T00:16:19.396Z,51.11
2023-08-27T00:17:19.399Z,51.62
2023-08-27T00:18:19.361Z,53.72
2023-08-27T00:19:19.340Z,50.65
2023-08-27T00:20:19.333Z,51.49
2023-08-27T00:21:19.315Z,51.84
2023-08-27T00:22:19.333Z,53.38
2023-08-27T00:23:19.304Z,53.02
2023-08-27T00:24:19.296Z,53.92
2023-08-27T00:25:19.286Z,52.82
2023-08-27T00:26:19.283Z,50.76
2023-08-27T00:27:19.308Z,52.99
2023-08-27T00:28:19.245Z,50.75
2023-08-27T00:29:19.234Z,51.55
2023-08-27T00:30:19.232Z,54.82
2023-08-27T00:31:19.319Z,55.09
2023-08-27T00:32:25.531Z,53.82
2023-08-27T00:33:21.351Z,53.29
2023-08-27T00:34:19.190Z,52.26
2023-08-27T00:35:19.187Z,54.65
2023-08-27T00:36:19.195Z,54.00
2023-08-27T00:37:19.149Z,52.23
2023-08-27T00:38:19.161Z,51.86
2023-08-27T00:39:19.135Z,51.98
2023-08-27T00:40:19.168Z,54.03
2023-08-27T00:41:19.137Z,52.83
2023-08-27T00:42:19.102Z,56.13
2023-08-27T00:43:19.094Z,55.63
2023-08-27T00:44:19.093Z,53.27
2023-08-27T00:45:19.100Z,54.11
2023-08-27T00:46:19.083Z,52.29
2023-08-27T00:47:19.070Z,55.29
2023-08-27T00:48:19.052Z,53.68
2023-08-27T00:49:19.042Z,55.38
2023-08-27T00:50:19.049Z,54.54
2023-08-27T00:51:19.015Z,54.04
2023-08-27T00:52:19.009Z,54.13
2023-08-27T00:53:19.025Z,53.75
2023-08-27T00:54:19.007Z,57.08
2023-08-27T00:55:19.007Z,56.12
2023-08-27T00:56:18.974Z,54.81
2023-08-27T00:57:18.957Z,52.52
2023-08-27T00:58:18.968Z,54.34
2023-08-27T00:59:18.996Z,52.78
2023-08-27T01:00:18.964Z,54.51
2023-08-27T01:01:18.966Z,54.40
2023-08-27T01:02:18.973Z,52.38
2023-08-27T01:03:19.010Z,50.99
2023-08-27T01:04:18.942Z,51.90
2023-08-27T01:05:18.902Z,52.41
2023-08-27T01:06:18.890Z,51.08
2023-08-27T01:07:18.873Z,53.93
2023-08-27T01:08:18.892Z,53.25
2023-08-27T01:09:18.892Z,53.77
2023-08-27T01:10:18.844Z,52.99
2023-08-27T01:11:18.846Z,51.01
2023-08-27T01:12:18.827Z,51.02
2023-08-27T01:13:18.854Z,53.29
2023-08-27T01:14:18.859Z,52.02
2023-08-27T01:15:18.802Z,50.57
2023-08-27T01:16:18.791Z,53.56
2023-08-27T01:17:18.801Z,52.84
2023-08-27T01:18:18.789Z,50.74
2023-08-27T01:19:18.796Z,51.65
2023-08-27T01:20:18.763Z,52.69
2023-08-27T01:21:18.763Z,53.50
2023-08-27T01:22:18.756Z,54.29
2023-08-27T01:23:18.750Z,51.14
2023-08-27T01:24:18.712Z,51.10
2023-08-27T01:25:18.693Z,51.23
2023-08-27T01:26:18.688Z,53.29
2023-08-27T01:27:18.727Z,55.75
2023-08-27T01:28:18.708Z,53.86
2023-08-27T01:29:18.649Z,51.08
2023-08-27T01:30:18.663Z,51.86
2023-08-27T01:31:18.690Z,52.90
2023-08-27T01:32:18.671Z,52.52
2023-08-27T01:33:18.625Z,55.98
2023-08-27T01:34:18.622Z,51.98
2023-08-27T01:35:18.620Z,53.14
2023-08-27T01:36:18.635Z,52.51
2023-08-27T01:37:18.624Z,51.80
2023-08-27T01:38:18.562Z,50.34
2023-08-27T01:39:18.560Z,50.79
2023-08-27T01:40:18.550Z,51.58
2023-08-27T01:41:18.601Z,51.20
2023-08-27T01:42:18.544Z,51.54
2023-08-27T01:43:18.526Z,51.38
2023-08-27T01:44:18.526Z,55.85
2023-08-27T01:45:18.512Z,52.27
2023-08-27T01:46:18.533Z,54.24
2023-08-27T01:47:18.487Z,54.13
2023-08-27T01:48:18.494Z,50.29
2023-08-27T01:49:18.470Z,52.08
2023-08-27T01:50:18.478Z,53.55
2023-08-27T01:51:18.496Z,53.59
2023-08-27T01:52:18.446Z,51.35
2023-08-27T01:53:18.426Z,53.56
2023-08-27T01:54:18.410Z,53.58
2023-08-27T01:55:18.419Z,50.78
2023-08-27T01:56:18.382Z,50.19
2023-08-27T01:57:18.385Z,51.45
2023-08-27T01:58:18.366Z,49.59
2023-08-27T01:59:18.374Z,52.13
2023-08-27T02:00:18.402Z,51.27
2023-08-27T02:01:18.368Z,50.28
2023-08-27T02:02:18.377Z,50.55
2023-08-27T02:03:18.381Z,49.39
2023-08-27T02:04:18.336Z,51.27
2023-08-27T02:05:18.316Z,50.39
2023-08-27T02:06:18.287Z,50.69
2023-08-27T02:07:18.289Z,51.27
2023-08-27T02:08:18.278Z,51.39
2023-08-27T02:09:18.318Z,53.39
2023-08-27T02:10:18.258Z,48.16
2023-08-27T02:11:50.132Z,53.80
2023-08-27T02:12:18.224Z,54.43
2023-08-27T02:13:18.209Z,53.57
2023-08-27T02:14:18.222Z,51.11
2023-08-27T02:15:18.194Z,51.61
2023-08-27T02:16:18.212Z,49.93
2023-08-27T02:17:18.174Z,51.54
2023-08-27T02:18:18.193Z,49.78
2023-08-27T02:19:18.165Z,51.85
2023-08-27T02:20:18.140Z,50.32
2023-08-27T02:21:18.127Z,50.13
2023-08-27T02:22:18.118Z,53.86
2023-08-27T02:23:18.180Z,50.07
2023-08-27T02:24:18.100Z,49.88
2023-08-27T02:25:18.102Z,49.93
2023-08-27T02:26:18.078Z,51.76
2023-08-27T02:27:18.070Z,51.25
2023-08-27T02:28:18.082Z,48.70
2023-08-27T02:29:18.046Z,50.59
2023-08-27T02:30:18.043Z,53.48
2023-08-27T02:31:18.105Z,49.81
2023-08-27T02:32:18.051Z,49.08
2023-08-27T02:33:18.069Z,53.08
2023-08-27T02:34:18.010Z,49.47
2023-08-27T02:35:17.991Z,53.11
2023-08-27T02:36:18.002Z,49.36
2023-08-27T02:37:17.993Z,49.55
2023-08-27T02:38:17.963Z,48.21
2023-08-27T02:39:17.964Z,50.44
2023-08-27T02:40:17.940Z,49.02
2023-08-27T02:41:17.930Z,54.95
2023-08-27T02:42:17.951Z,49.60
2023-08-27T02:43:17.897Z,51.52
2023-08-27T02:44:18.911Z,51.21
2023-08-27T02:45:17.907Z,52.63
2023-08-27T02:46:17.966Z,49.91
2023-08-27T02:47:17.894Z,52.78
2023-08-27T02:48:17.855Z,51.26
2023-08-27T02:49:17.853Z,49.94
2023-08-27T02:50:17.849Z,49.00
2023-08-27T02:51:17.847Z,52.90
2023-08-27T02:52:17.829Z,53.26
2023-08-27T02:53:17.823Z,52.50
2023-08-27T02:54:17.837Z,53.80
2023-08-27T02:55:17.811Z,50.67
2023-08-27T02:56:17.798Z,51.43
2023-08-27T02:57:17.776Z,52.24
2023-08-27T02:58:17.778Z,51.91
2023-08-27T02:59:17.754Z,50.55
2023-08-27T03:00:17.774Z,52.48
2023-08-27T03:01:17.760Z,52.03
2023-08-27T03:02:17.716Z,50.43
2023-08-27T03:03:17.764Z,51.57
2023-08-27T03:04:17.700Z,53.23
2023-08-27T03:05:17.777Z,51.17
2023-08-27T03:06:17.697Z,52.98
2023-08-27T03:07:17.672Z,52.62
2023-08-27T03:08:17.682Z,54.29
2023-08-27T03:09:17.718Z,49.85
2023-08-27T03:10:17.676Z,51.61
2023-08-27T03:11:17.698Z,50.44
2023-08-27T03:12:17.663Z,51.71
2023-08-27T03:13:17.614Z,52.30
2023-08-27T03:14:17.684Z,52.21
2023-08-27T03:15:17.593Z,54.41
2023-08-27T03:16:17.640Z,49.91
2023-08-27T03:17:17.591Z,50.38
2023-08-27T03:18:17.579Z,51.48
2023-08-27T03:19:17.577Z,51.68
2023-08-27T03:20:17.574Z,52.44
2023-08-27T03:21:17.551Z,52.13
2023-08-27T03:22:17.541Z,52.27
2023-08-27T03:23:17.533Z,52.67
2023-08-27T03:24:17.527Z,52.32
2023-08-27T03:25:17.501Z,53.84
2023-08-27T03:26:17.488Z,52.61
2023-08-27T03:27:17.508Z,54.48
2023-08-27T03:28:17.491Z,51.93
2023-08-27T03:29:17.472Z,53.13
2023-08-27T03:30:17.455Z,52.13
2023-08-27T03:31:17.486Z,54.99
2023-08-27T03:32:17.446Z,54.21
2023-08-27T03:33:17.460Z,53.04
2023-08-27T03:34:17.429Z,55.28
2023-08-27T03:35:17.399Z,56.54
2023-08-27T03:36:17.392Z,55.78
2023-08-27T03:37:17.407Z,55.27
2023-08-27T03:38:17.397Z,52.51
2023-08-27T03:39:17.394Z,53.48
2023-08-27T03:40:17.348Z,54.43
2023-08-27T03:41:17.359Z,55.90
2023-08-27T03:42:17.357Z,56.12
2023-08-27T03:43:17.333Z,56.15
2023-08-27T03:44:17.328Z,53.34
2023-08-27T03:45:17.298Z,54.77
2023-08-27T03:46:17.323Z,54.09
2023-08-27T03:47:17.305Z,51.66
2023-08-27T03:48:17.282Z,52.86
2023-08-27T03:49:17.297Z,55.67
2023-08-27T03:50:17.261Z,56.07
2023-08-27T03:51:17.256Z,56.05
2023-08-27T03:52:17.281Z,54.07
2023-08-27T03:53:17.248Z,56.84
2023-08-27T03:54:17.212Z,55.16
2023-08-27T03:55:17.249Z,55.47
2023-08-27T03:56:17.234Z,55.96
2023-08-27T03:57:17.188Z,55.19
2023-08-27T03:58:17.169Z,56.17
2023-08-27T03:59:17.160Z,54.64
2023-08-27T04:00:17.169Z,54.59
2023-08-27T04:01:17.253Z,54.75
2023-08-27T04:02:17.149Z,54.31
2023-08-27T04:03:17.329Z,55.17
2023-08-27T04:04:17.193Z,55.66
2023-08-27T04:05:17.147Z,54.44
2023-08-27T04:06:17.122Z,54.00
2023-08-27T04:07:17.083Z,54.53
2023-08-27T04:08:17.069Z,54.58
2023-08-27T04:09:17.063Z,54.21
2023-08-27T04:10:17.066Z,53.11
2023-08-27T04:11:17.043Z,54.85
2023-08-27T04:12:17.033Z,54.27
2023-08-27T04:13:17.027Z,52.36
2023-08-27T04:14:17.002Z,53.42
2023-08-27T04:15:17.068Z,53.42
2023-08-27T04:16:17.042Z,53.20
2023-08-27T04:17:16.997Z,53.95
2023-08-27T04:18:17.032Z,53.32
2023-08-27T04:19:16.976Z,52.62
2023-08-27T04:20:17.002Z,52.55
2023-08-27T04:21:16.939Z,51.81
2023-08-27T04:22:16.925Z,55.84
2023-08-27T04:23:16.918Z,52.86
2023-08-27T04:24:17.740Z,51.14
2023-08-27T04:25:17.935Z,50.93
2023-08-27T04:26:16.900Z,53.51
2023-08-27T04:27:16.922Z,54.60
2023-08-27T04:28:17.863Z,57.23
2023-08-27T04:29:16.893Z,54.49
2023-08-27T04:30:16.848Z,54.66
2023-08-27T04:31:16.858Z,53.76
2023-08-27T04:32:16.842Z,55.33
2023-08-27T04:33:16.945Z,53.67
2023-08-27T04:34:16.859Z,54.38
2023-08-27T04:35:16.822Z,55.66
2023-08-27T04:36:16.799Z,53.82
2023-08-27T04:37:16.810Z,54.99
2023-08-27T04:38:16.798Z,52.90
2023-08-27T04:39:16.796Z,54.78
2023-08-27T04:40:16.770Z,56.28
2023-08-27T04:41:16.762Z,55.97
2023-08-27T04:42:16.759Z,54.22
2023-08-27T04:43:16.771Z,56.06
2023-08-27T04:44:16.726Z,57.06
2023-08-27T04:45:16.723Z,56.09
2023-08-27T04:46:16.699Z,54.02
2023-08-27T04:47:16.698Z,55.99
2023-08-27T04:48:16.721Z,57.82
2023-08-27T04:49:16.658Z,54.87
2023-08-27T04:50:16.658Z,54.58
2023-08-27T04:51:16.648Z,55.65
2023-08-27T04:52:29.870Z,52.66
2023-08-27T04:53:18.692Z,54.87
2023-08-27T04:54:16.636Z,56.55
2023-08-27T04:55:16.615Z,56.25
2023-08-27T04:56:16.600Z,55.77
2023-08-27T04:57:16.624Z,55.38
2023-08-27T04:58:16.676Z,55.47
2023-08-27T04:59:16.580Z,55.92
2023-08-27T05:00:16.566Z,56.24
2023-08-27T05:01:16.613Z,55.07
2023-08-27T05:02:16.591Z,56.74
2023-08-27T05:03:16.562Z,56.73
2023-08-27T05:04:16.538Z,58.80
2023-08-27T05:05:16.525Z,56.48
2023-08-27T05:06:16.527Z,53.05
2023-08-27T05:07:16.500Z,53.39
2023-08-27T05:08:16.483Z,55.14
2023-08-27T05:09:16.483Z,56.88
2023-08-27T05:10:16.466Z,52.81
2023-08-27T05:11:16.479Z,55.59
2023-08-27T05:12:16.441Z,57.82
2023-08-27T05:13:16.441Z,56.94
2023-08-27T05:14:16.496Z,57.16
2023-08-27T05:15:16.444Z,56.40
2023-08-27T05:16:16.447Z,56.96
2023-08-27T05:17:16.400Z,58.50
2023-08-27T05:18:16.469Z,58.67
2023-08-27T05:19:16.370Z,57.75
2023-08-27T05:20:16.379Z,57.70
2023-08-27T05:21:16.363Z,56.81
2023-08-27T05:22:16.355Z,57.66
2023-08-27T05:23:16.350Z,58.61
2023-08-27T05:24:16.340Z,59.74
2023-08-27T05:25:16.341Z,59.29
2023-08-27T05:26:16.311Z,58.34
2023-08-27T05:27:16.323Z,59.43
2023-08-27T05:28:16.285Z,60.10
2023-08-27T05:29:16.287Z,61.67
2023-08-27T05:30:16.332Z,59.98
2023-08-27T05:31:16.332Z,60.41
2023-08-27T05:32:16.247Z,57.67
2023-08-27T05:33:16.242Z,58.35
2023-08-27T05:34:16.229Z,57.82
2023-08-27T05:35:16.210Z,56.59
2023-08-27T05:36:16.218Z,54.69
2023-08-27T05:37:16.199Z,54.90
2023-08-27T05:38:16.204Z,55.15
2023-08-27T05:39:16.198Z,56.12
2023-08-27T05:40:16.161Z,57.06
2023-08-27T05:41:16.161Z,54.27
2023-08-27T05:42:16.146Z,55.25
2023-08-27T05:43:16.173Z,53.39
2023-08-27T05:44:16.160Z,54.26
2023-08-27T05:45:16.106Z,54.31
2023-08-27T05:46:16.114Z,57.35
2023-08-27T05:47:16.090Z,58.28
2023-08-27T05:48:16.139Z,58.06
2023-08-27T05:49:16.069Z,57.25
2023-08-27T05:50:16.066Z,57.62
2023-08-27T05:51:16.040Z,54.50
2023-08-27T05:52:16.068Z,55.82
2023-08-27T05:53:17.042Z,57.42
2023-08-27T05:54:16.016Z,57.49
2023-08-27T05:55:16.003Z,56.41
2023-08-27T05:56:15.991Z,56.72
2023-08-27T05:57:16.001Z,58.63
2023-08-27T05:58:15.996Z,56.97
2023-08-27T05:59:15.975Z,58.18
2023-08-27T06:00:15.975Z,57.47
2023-08-27T06:01:15.960Z,56.54
2023-08-27T06:02:15.951Z,56.17
2023-08-27T06:03:15.951Z,56.37
2023-08-27T06:04:15.929Z,56.30
2023-08-27T06:05:15.912Z,55.96
2023-08-27T06:06:15.895Z,57.86
2023-08-27T06:07:15.902Z,55.00
2023-08-27T06:08:15.871Z,55.11
2023-08-27T06:09:15.860Z,56.21
2023-08-27T06:10:15.918Z,57.68
2023-08-27T06:11:15.866Z,57.56
2023-08-27T06:12:15.896Z,57.45
2023-08-27T06:13:15.827Z,55.58
2023-08-27T06:14:15.821Z,56.09
2023-08-27T06:15:15.805Z,55.75
2023-08-27T06:16:15.910Z,55.61
2023-08-27T06:17:15.812Z,56.09
2023-08-27T06:18:15.807Z,57.65
2023-08-27T06:19:15.764Z,57.08
2023-08-27T06:20:15.751Z,57.20
2023-08-27T06:21:15.768Z,56.64
2023-08-27T06:22:15.738Z,57.96
2023-08-27T06:23:15.720Z,57.98
2023-08-27T06:24:15.743Z,58.69
2023-08-27T06:25:15.733Z,56.18
2023-08-27T06:26:15.705Z,57.99
2023-08-27T06:27:15.693Z,56.75
2023-08-27T06:28:15.683Z,57.30
2023-08-27T06:29:15.669Z,57.49
2023-08-27T06:30:15.673Z,55.89
2023-08-27T06:31:15.640Z,55.86
2023-08-27T06:32:15.643Z,58.00
2023-08-27T06:33:15.642Z,57.63
2023-08-27T06:34:15.623Z,56.61
2023-08-27T06:35:15.639Z,56.69
2023-08-27T06:36:15.597Z,56.73
2023-08-27T06:37:15.583Z,56.56
2023-08-27T06:38:15.571Z,57.79
2023-08-27T06:39:15.597Z,57.31
2023-08-27T06:40:15.572Z,57.71
2023-08-27T06:41:15.539Z,57.03
2023-08-27T06:42:15.544Z,58.15
2023-08-27T06:43:15.570Z,56.83
2023-08-27T06:44:15.549Z,59.22
2023-08-27T06:45:15.525Z,58.39
2023-08-27T06:46:15.516Z,56.78
2023-08-27T06:47:15.481Z,58.27
2023-08-27T06:48:15.543Z,57.26
2023-08-27T06:49:15.492Z,58.01
2023-08-27T06:50:15.463Z,58.71
2023-08-27T06:51:15.447Z,58.37
2023-08-27T06:52:15.434Z,58.51
2023-08-27T06:53:15.431Z,60.24
2023-08-27T06:54:15.497Z,57.67
2023-08-27T06:55:15.423Z,57.20
2023-08-27T06:56:15.405Z,57.69
2023-08-27T06:57:15.382Z,58.48
2023-08-27T06:58:15.399Z,58.85
2023-08-27T06:59:15.436Z,58.03
2023-08-27T07:00:15.366Z,59.89
2023-08-27T07:01:15.449Z,59.73
2023-08-27T07:02:15.331Z,58.97
2023-08-27T07:03:15.394Z,57.53
2023-08-27T07:04:15.330Z,55.44
2023-08-27T07:05:15.336Z,57.73
2023-08-27T07:06:15.296Z,56.44
2023-08-27T07:07:15.321Z,57.79
2023-08-27T07:08:15.303Z,56.99
2023-08-27T07:09:15.277Z,58.35
2023-08-27T07:10:15.284Z,57.49
2023-08-27T07:11:15.260Z,55.34
2023-08-27T07:12:15.261Z,56.02
2023-08-27T07:13:15.250Z,55.45
2023-08-27T07:14:15.244Z,54.15
2023-08-27T07:15:15.234Z,53.77
2023-08-27T07:16:15.214Z,56.17
2023-08-27T07:17:15.223Z,56.48
2023-08-27T07:18:15.199Z,56.68
2023-08-27T07:19:15.175Z,55.37
2023-08-27T07:20:15.170Z,56.95
2023-08-27T07:21:15.154Z,53.62
2023-08-27T07:22:15.160Z,56.61
2023-08-27T07:23:15.134Z,56.57
2023-08-27T07:24:15.117Z,54.57
2023-08-27T07:25:16.517Z,55.64
2023-08-27T07:26:15.128Z,56.24
2023-08-27T07:27:15.120Z,60.31
2023-08-27T07:28:15.086Z,57.02
2023-08-27T07:29:15.072Z,53.52
2023-08-27T07:30:15.068Z,55.94
2023-08-27T07:31:15.132Z,56.08
2023-08-27T07:32:15.046Z,56.55
2023-08-27T07:33:15.025Z,57.10
2023-08-27T07:34:15.020Z,56.73
2023-08-27T07:35:15.005Z,56.44
2023-08-27T07:36:15.028Z,55.55
2023-08-27T07:37:14.984Z,56.81
2023-08-27T07:38:14.980Z,55.33
2023-08-27T07:39:14.965Z,54.55
2023-08-27T07:40:14.981Z,54.75
2023-08-27T07:41:14.958Z,55.12
2023-08-27T07:42:14.942Z,54.99
2023-08-27T07:43:14.925Z,55.89
2023-08-27T07:44:14.919Z,56.55
2023-08-27T07:45:14.921Z,56.60
2023-08-27T07:46:14.945Z,56.60
2023-08-27T07:47:14.886Z,56.26
2023-08-27T07:48:14.904Z,55.45
2023-08-27T07:49:14.869Z,56.60
2023-08-27T07:50:14.879Z,58.94
2023-08-27T07:51:14.863Z,57.62
2023-08-27T07:52:14.855Z,55.42
2023-08-27T07:53:14.826Z,57.58
2023-08-27T07:54:14.846Z,56.12
2023-08-27T07:55:14.845Z,56.26
2023-08-27T07:56:14.818Z,57.07
2023-08-27T07:57:14.792Z,57.91
2023-08-27T07:58:14.788Z,55.78
2023-08-27T07:59:14.796Z,55.50
2023-08-27T08:00:14.774Z,55.50
2023-08-27T08:01:14.802Z,56.14
2023-08-27T08:02:14.756Z,56.43
2023-08-27T08:03:14.824Z,58.00
2023-08-27T08:04:14.780Z,57.72
2023-08-27T08:05:14.722Z,56.38
2023-08-27T08:06:14.714Z,58.21
2023-08-27T08:07:14.699Z,57.92
2023-08-27T08:08:14.700Z,57.46
2023-08-27T08:09:14.713Z,59.98
2023-08-27T08:10:14.676Z,59.32
2023-08-27T08:11:14.651Z,55.54
2023-08-27T08:12:14.654Z,56.49
2023-08-27T08:13:46.559Z,56.17
2023-08-27T08:14:14.638Z,55.99
2023-08-27T08:15:14.614Z,55.02
2023-08-27T08:16:14.630Z,55.00
2023-08-27T08:17:14.595Z,55.04
2023-08-27T08:18:14.656Z,55.10
2023-08-27T08:19:14.590Z,54.99
2023-08-27T08:20:14.776Z,55.92
2023-08-27T08:21:14.554Z,56.96
2023-08-27T08:22:14.561Z,56.28
2023-08-27T08:23:14.547Z,55.69
2023-08-27T08:24:16.493Z,55.57
2023-08-27T08:25:15.514Z,55.92
2023-08-27T08:26:14.498Z,55.41
2023-08-27T08:27:14.502Z,55.99
2023-08-27T08:28:14.484Z,57.23
2023-08-27T08:29:14.482Z,57.40
2023-08-27T08:30:14.485Z,56.29
2023-08-27T08:31:14.495Z,55.64
2023-08-27T08:32:14.476Z,56.06
2023-08-27T08:33:14.462Z,56.63
2023-08-27T08:34:14.473Z,56.24
2023-08-27T08:35:14.468Z,55.72
2023-08-27T08:36:14.522Z,54.64
2023-08-27T08:37:14.524Z,55.34
2023-08-27T08:38:14.478Z,56.68
2023-08-27T08:39:14.379Z,56.46
2023-08-27T08:40:14.389Z,57.04
2023-08-27T08:41:14.397Z,56.95
2023-08-27T08:42:14.356Z,56.39
2023-08-27T08:43:14.355Z,55.34
2023-08-27T08:44:14.330Z,56.23
2023-08-27T08:45:14.322Z,59.02
2023-08-27T08:46:14.416Z,56.08
2023-08-27T08:47:14.309Z,56.88
2023-08-27T08:48:14.330Z,57.24
2023-08-27T08:49:14.282Z,57.36
2023-08-27T08:50:14.300Z,56.07
2023-08-27T08:51:14.402Z,57.13
2023-08-27T08:52:14.247Z,57.17
2023-08-27T08:53:14.260Z,56.54
2023-08-27T08:54:14.225Z,57.75
2023-08-27T08:55:14.256Z,57.17
2023-08-27T08:56:14.209Z,55.88
2023-08-27T08:57:14.207Z,57.09
2023-08-27T08:58:14.198Z,57.74
2023-08-27T08:59:14.184Z,57.68
2023-08-27T09:00:14.205Z,57.02
2023-08-27T09:01:14.305Z,57.82
2023-08-27T09:02:14.159Z,57.61
2023-08-27T09:03:14.138Z,57.05
2023-08-27T09:04:15.149Z,57.63
2023-08-27T09:05:14.180Z,58.49
2023-08-27T09:06:14.120Z,58.63
2023-08-27T09:07:14.098Z,58.43
2023-08-27T09:08:14.091Z,57.07
2023-08-27T09:09:14.092Z,58.40
2023-08-27T09:10:14.074Z,58.42
2023-08-27T09:11:14.055Z,58.32
2023-08-27T09:12:14.047Z,56.37
2023-08-27T09:13:14.039Z,57.40
2023-08-27T09:14:14.048Z,57.72
2023-08-27T09:15:14.022Z,57.46
2023-08-27T09:16:14.021Z,57.30
2023-08-27T09:17:13.994Z,58.24
2023-08-27T09:18:14.020Z,58.94
2023-08-27T09:19:14.001Z,57.93
2023-08-27T09:20:13.966Z,58.11
2023-08-27T09:21:13.955Z,57.54
2023-08-27T09:22:14.959Z,58.03
2023-08-27T09:23:13.973Z,56.81
2023-08-27T09:24:13.941Z,58.06
2023-08-27T09:25:13.928Z,57.63
2023-08-27T09:26:13.918Z,56.24
2023-08-27T09:27:13.904Z,56.63
2023-08-27T09:28:13.970Z,57.68
2023-08-27T09:29:13.892Z,57.67
2023-08-27T09:30:13.869Z,56.34
2023-08-27T09:31:13.856Z,56.66
2023-08-27T09:32:13.919Z,58.83
2023-08-27T09:33:13.884Z,58.87
2023-08-27T09:34:13.832Z,58.08
2023-08-27T09:35:13.822Z,58.12
2023-08-27T09:36:13.844Z,58.47
2023-08-27T09:37:13.852Z,57.85
2023-08-27T09:38:13.798Z,57.50
2023-08-27T09:39:13.805Z,57.90
2023-08-27T09:40:13.803Z,59.31
2023-08-27T09:41:13.759Z,59.96
2023-08-27T09:42:13.768Z,60.54
2023-08-27T09:43:13.748Z,60.05
2023-08-27T09:44:13.731Z,59.25
2023-08-27T09:45:13.729Z,58.79
2023-08-27T09:46:13.820Z,60.16
2023-08-27T09:47:13.747Z,60.12
2023-08-27T09:48:13.745Z,58.63
2023-08-27T09:49:13.683Z,58.53
2023-08-27T09:50:13.680Z,59.10
2023-08-27T09:51:13.695Z,59.43
2023-08-27T09:52:13.653Z,59.52
2023-08-27T09:53:13.658Z,58.68
2023-08-27T09:54:13.637Z,57.52
2023-08-27T09:55:13.628Z,58.35
2023-08-27T09:56:13.673Z,58.87
2023-08-27T09:57:13.603Z,59.31
2023-08-27T09:58:13.636Z,58.60
2023-08-27T09:59:13.608Z,59.70
2023-08-27T10:00:13.597Z,60.73
2023-08-27T10:01:13.657Z,59.59
2023-08-27T10:02:13.557Z,59.42
2023-08-27T10:03:13.620Z,60.19
2023-08-27T10:04:13.563Z,60.18
2023-08-27T10:05:16.300Z,61.32
2023-08-27T10:06:13.516Z,60.93
2023-08-27T10:07:13.501Z,59.73
2023-08-27T10:08:13.537Z,60.10
2023-08-27T10:09:13.495Z,59.80
2023-08-27T10:10:13.496Z,58.86
2023-08-27T10:11:13.476Z,58.48
2023-08-27T10:12:13.470Z,58.16
2023-08-27T10:13:13.446Z,59.42
2023-08-27T10:14:13.474Z,58.81
2023-08-27T10:15:13.445Z,58.70
2023-08-27T10:16:13.497Z,58.03
2023-08-27T10:17:13.403Z,58.31
2023-08-27T10:18:13.507Z,58.60
2023-08-27T10:19:13.435Z,58.63
2023-08-27T10:20:13.383Z,59.09
2023-08-27T10:21:13.366Z,59.20
2023-08-27T10:22:13.363Z,60.13
2023-08-27T10:23:13.344Z,60.10
2023-08-27T10:24:13.364Z,59.54
2023-08-27T10:25:13.331Z,58.92
2023-08-27T10:26:13.324Z,59.79
2023-08-27T10:27:13.314Z,59.73
2023-08-27T10:28:13.310Z,58.98
2023-08-27T10:29:13.305Z,58.95
2023-08-27T10:30:13.310Z,58.87
2023-08-27T10:31:13.299Z,57.52
2023-08-27T10:32:13.256Z,57.39
2023-08-27T10:33:13.275Z,56.30
2023-08-27T10:34:13.263Z,57.75
2023-08-27T10:35:13.283Z,58.18
2023-08-27T10:36:13.217Z,56.89
2023-08-27T10:37:13.206Z,57.99
2023-08-27T10:38:13.217Z,59.09
2023-08-27T10:39:13.200Z,59.19
2023-08-27T10:40:13.187Z,58.18
2023-08-27T10:41:13.172Z,57.37
2023-08-27T10:42:13.179Z,57.03
2023-08-27T10:43:13.170Z,57.38
2023-08-27T10:44:13.141Z,56.98
2023-08-27T10:45:13.145Z,59.28
2023-08-27T10:46:13.142Z,59.07
2023-08-27T10:47:13.149Z,58.19
2023-08-27T10:48:13.155Z,58.49
2023-08-27T10:49:13.093Z,59.40
2023-08-27T10:50:13.092Z,58.48
2023-08-27T10:51:13.085Z,59.41
2023-08-27T10:52:13.657Z,57.70
2023-08-27T10:53:13.045Z,58.73
2023-08-27T10:54:13.040Z,59.90
2023-08-27T10:55:13.051Z,58.94
2023-08-27T10:56:13.024Z,59.22
2023-08-27T10:57:13.038Z,59.25
2023-08-27T10:58:13.004Z,58.83
2023-08-27T10:59:12.997Z,58.60
2023-08-27T11:00:12.988Z,57.79
2023-08-27T11:01:13.044Z,58.80
2023-08-27T11:02:12.989Z,57.70
2023-08-27T11:03:12.989Z,57.23
2023-08-27T11:04:12.954Z,57.24
2023-08-27T11:05:12.941Z,57.89
2023-08-27T11:06:12.953Z,56.89
2023-08-27T11:07:12.973Z,56.47
2023-08-27T11:08:12.922Z,57.09
2023-08-27T11:09:17.467Z,57.05
2023-08-27T11:10:14.935Z,58.32
2023-08-27T11:11:12.896Z,58.00
2023-08-27T11:12:12.872Z,57.05
2023-08-27T11:13:12.855Z,57.37
2023-08-27T11:14:19.970Z,57.21
2023-08-27T11:15:14.886Z,55.52
2023-08-27T11:16:12.835Z,56.08
2023-08-27T11:17:12.826Z,56.11
2023-08-27T11:18:12.830Z,56.45
2023-08-27T11:19:12.804Z,56.42
2023-08-27T11:20:12.809Z,57.08
2023-08-27T11:21:12.782Z,57.47
2023-08-27T11:22:12.909Z,58.02
2023-08-27T11:23:12.762Z,58.42
2023-08-27T11:24:12.768Z,58.21
2023-08-27T11:25:12.814Z,57.53
2023-08-27T11:26:12.731Z,58.12
2023-08-27T11:27:12.742Z,57.22
2023-08-27T11:28:12.739Z,58.34
2023-08-27T11:29:12.734Z,56.93
2023-08-27T11:30:12.711Z,56.01
2023-08-27T11:31:12.756Z,56.43
2023-08-27T11:32:12.676Z,57.46
2023-08-27T11:33:12.681Z,57.36
2023-08-27T11:34:12.705Z,58.13
2023-08-27T11:35:12.647Z,57.60
2023-08-27T11:36:12.629Z,57.28
2023-08-27T11:37:15.644Z,56.08
2023-08-27T11:38:12.640Z,56.75
2023-08-27T11:39:12.620Z,57.11
2023-08-27T11:40:12.635Z,57.67
2023-08-27T11:41:12.588Z,57.34
2023-08-27T11:42:12.693Z,56.41
2023-08-27T11:43:12.585Z,56.14
2023-08-27T11:44:13.593Z,55.56
2023-08-27T11:45:12.548Z,56.64
2023-08-27T11:46:12.563Z,57.35
2023-08-27T11:47:12.538Z,57.41
2023-08-27T11:48:12.595Z,57.56
2023-08-27T11:49:12.511Z,57.64
2023-08-27T11:50:12.503Z,56.05
2023-08-27T11:51:12.493Z,55.34
2023-08-27T11:52:12.539Z,56.59
2023-08-27T11:53:12.500Z,54.60
2023-08-27T11:54:12.459Z,56.19
2023-08-27T11:55:12.462Z,56.08
2023-08-27T11:56:12.448Z,55.79
2023-08-27T11:57:12.469Z,53.34
2023-08-27T11:58:12.425Z,54.24
2023-08-27T11:59:12.420Z,54.53
2023-08-27T12:00:12.466Z,57.28
2023-08-27T12:01:12.448Z,58.10
2023-08-27T12:02:12.408Z,57.39
2023-08-27T12:03:12.421Z,56.16
2023-08-27T12:04:12.383Z,56.69
2023-08-27T12:05:12.390Z,56.78
2023-08-27T12:06:12.365Z,55.93
2023-08-27T12:07:12.368Z,56.63
2023-08-27T12:08:12.334Z,57.09
2023-08-27T12:09:12.312Z,57.93
2023-08-27T12:10:12.314Z,57.53
2023-08-27T12:11:12.326Z,58.45
2023-08-27T12:12:12.293Z,56.77
2023-08-27T12:13:12.309Z,56.47
2023-08-27T12:14:12.272Z,57.58
2023-08-27T12:15:12.259Z,57.98
2023-08-27T12:16:12.292Z,56.74
2023-08-27T12:17:12.250Z,57.01
2023-08-27T12:18:12.278Z,56.77
2023-08-27T12:19:12.220Z,57.67
2023-08-27T12:20:12.225Z,56.51
2023-08-27T12:21:12.218Z,57.10
2023-08-27T12:22:12.187Z,57.05
2023-08-27T12:23:12.221Z,58.21
2023-08-27T12:24:12.174Z,56.10
2023-08-27T12:25:12.177Z,57.70
2023-08-27T12:26:12.153Z,58.51
2023-08-27T12:27:12.154Z,58.08
2023-08-27T12:28:12.140Z,57.94
2023-08-27T12:29:12.135Z,55.70
2023-08-27T12:30:12.163Z,57.15
2023-08-27T12:31:12.155Z,57.35
2023-08-27T12:32:12.119Z,57.28
2023-08-27T12:33:12.091Z,58.66
2023-08-27T12:34:12.124Z,58.42
2023-08-27T12:35:12.129Z,58.89
2023-08-27T12:36:12.058Z,58.37
2023-08-27T12:37:12.057Z,58.80
2023-08-27T12:38:12.102Z,57.69
2023-08-27T12:39:12.053Z,57.33
2023-08-27T12:40:12.044Z,56.14
2023-08-27T12:41:12.040Z,55.07
2023-08-27T12:42:12.006Z,56.00
2023-08-27T12:43:12.003Z,57.52
2023-08-27T12:44:12.009Z,58.63
2023-08-27T12:45:11.991Z,59.77
2023-08-27T12:46:11.997Z,60.59
2023-08-27T12:47:11.961Z,60.69
2023-08-27T12:48:12.025Z,59.57
2023-08-27T12:49:11.949Z,59.33
2023-08-27T12:50:11.944Z,59.42
2023-08-27T12:51:11.915Z,60.87
2023-08-27T12:52:11.919Z,61.55